sensor_id;sensor_type;location;lat;lon;timestamp;P1;durP1;ratioP1;P2;durP2;ratioP2
29162;SDS011;20331;53.144;8.208;2023-10-31T00:04:30;12.70;;;10.32;;
29162;SDS011;20331;53.144;8.208;2023-10-31T00:09:53;13.98;;;9.77;;
29162;SDS011;20331;53.144;8.208;2023-10-31T00:15:15;11.10;;;8.88;;
29162;SDS011;20331;53.144;8.208;2023-10-31T00:20:37;12.00;;;9.30;;
29162;SDS011;20331;53.144;8.208;2023-10-31T00:25:59;12.43;;;9.55;;
29162;SDS011;20331;53.144;8.208;2023-10-31T00:31:20;13.55;;;9.68;;
29162;SDS011;20331;53.144;8.208;2023-10-31T00:36:42;12.10;;;10.02;;
29162;SDS011;20331;53.144;8.208;2023-10-31T00:42:04;11.45;;;9.98;;
29162;SDS011;20331;53.144;8.208;2023-10-31T00:47:26;16.77;;;10.18;;
29162;SDS011;20331;53.144;8.208;2023-10-31T00:52:48;13.73;;;10.75;;
29162;SDS011;20331;53.144;8.208;2023-10-31T00:58:11;13.20;;;10.32;;
29162;SDS011;20331;53.144;8.208;2023-10-31T01:03:33;13.63;;;10.23;;
29162;SDS011;20331;53.144;8.208;2023-10-31T01:08:55;12.07;;;10.20;;
29162;SDS011;20331;53.144;8.208;2023-10-31T01:14:17;12.55;;;11.10;;
29162;SDS011;20331;53.144;8.208;2023-10-31T01:19:38;12.02;;;10.70;;
29162;SDS011;20331;53.144;8.208;2023-10-31T01:25:01;11.95;;;9.90;;
29162;SDS011;20331;53.144;8.208;2023-10-31T01:30:23;15.73;;;11.40;;
29162;SDS011;20331;53.144;8.208;2023-10-31T01:35:44;15.68;;;12.52;;
29162;SDS011;20331;53.144;8.208;2023-10-31T01:41:06;13.23;;;11.57;;
29162;SDS011;20331;53.144;8.208;2023-10-31T01:46:28;16.23;;;11.98;;
29162;SDS011;20331;53.144;8.208;2023-10-31T01:51:50;15.57;;;12.73;;
29162;SDS011;20331;53.144;8.208;2023-10-31T01:57:13;23.25;;;13.15;;
29162;SDS011;20331;53.144;8.208;2023-10-31T02:02:35;16.88;;;12.93;;
29162;SDS011;20331;53.144;8.208;2023-10-31T02:08:01;17.25;;;13.18;;
29162;SDS011;20331;53.144;8.208;2023-10-31T02:13:24;20.33;;;14.70;;
29162;SDS011;20331;53.144;8.208;2023-10-31T02:18:46;22.85;;;14.50;;
29162;SDS011;20331;53.144;8.208;2023-10-31T02:24:07;17.65;;;14.65;;
29162;SDS011;20331;53.144;8.208;2023-10-31T02:29:29;18.98;;;14.32;;
29162;SDS011;20331;53.144;8.208;2023-10-31T02:34:51;18.38;;;14.20;;
29162;SDS011;20331;53.144;8.208;2023-10-31T02:40:13;23.65;;;16.00;;
29162;SDS011;20331;53.144;8.208;2023-10-31T02:45:36;19.42;;;15.45;;
29162;SDS011;20331;53.144;8.208;2023-10-31T02:50:58;20.23;;;15.88;;
29162;SDS011;20331;53.144;8.208;2023-10-31T02:56:20;23.05;;;15.02;;
29162;SDS011;20331;53.144;8.208;2023-10-31T03:01:41;26.35;;;15.95;;
29162;SDS011;20331;53.144;8.208;2023-10-31T03:07:04;20.85;;;15.90;;
29162;SDS011;20331;53.144;8.208;2023-10-31T03:12:26;22.42;;;16.20;;
29162;SDS011;20331;53.144;8.208;2023-10-31T03:17:48;30.02;;;16.08;;
29162;SDS011;20331;53.144;8.208;2023-10-31T03:23:10;38.83;;;16.67;;
29162;SDS011;20331;53.144;8.208;2023-10-31T03:28:32;30.95;;;16.80;;
29162;SDS011;20331;53.144;8.208;2023-10-31T03:33:54;26.33;;;17.08;;
29162;SDS011;20331;53.144;8.208;2023-10-31T03:39:16;25.77;;;15.88;;
29162;SDS011;20331;53.144;8.208;2023-10-31T03:44:37;24.73;;;15.43;;
29162;SDS011;20331;53.144;8.208;2023-10-31T03:49:59;26.15;;;15.90;;
29162;SDS011;20331;53.144;8.208;2023-10-31T03:55:21;24.20;;;16.00;;
29162;SDS011;20331;53.144;8.208;2023-10-31T04:00:43;23.20;;;15.77;;
29162;SDS011;20331;53.144;8.208;2023-10-31T04:06:05;24.60;;;15.55;;
29162;SDS011;20331;53.144;8.208;2023-10-31T04:11:27;30.10;;;18.05;;
29162;SDS011;20331;53.144;8.208;2023-10-31T04:16:49;26.90;;;17.25;;
29162;SDS011;20331;53.144;8.208;2023-10-31T04:22:11;30.48;;;17.58;;
29162;SDS011;20331;53.144;8.208;2023-10-31T04:27:33;23.13;;;16.23;;
29162;SDS011;20331;53.144;8.208;2023-10-31T04:32:55;26.58;;;15.85;;
29162;SDS011;20331;53.144;8.208;2023-10-31T04:38:17;28.88;;;15.50;;
29162;SDS011;20331;53.144;8.208;2023-10-31T04:43:39;23.35;;;14.93;;
29162;SDS011;20331;53.144;8.208;2023-10-31T04:49:03;18.75;;;12.70;;
29162;SDS011;20331;53.144;8.208;2023-10-31T04:54:25;18.60;;;12.57;;
29162;SDS011;20331;53.144;8.208;2023-10-31T04:59:47;19.65;;;12.38;;
29162;SDS011;20331;53.144;8.208;2023-10-31T05:05:09;4.05;;;2.33;;
29162;SDS011;20331;53.144;8.208;2023-10-31T05:10:31;1.40;;;0.70;;
29162;SDS011;20331;53.144;8.208;2023-10-31T05:15:53;1.48;;;0.55;;
29162;SDS011;20331;53.144;8.208;2023-10-31T05:21:18;0.85;;;0.60;;
29162;SDS011;20331;53.144;8.208;2023-10-31T05:26:42;1.40;;;0.60;;
29162;SDS011;20331;53.144;8.208;2023-10-31T05:32:04;1.52;;;0.55;;
29162;SDS011;20331;53.144;8.208;2023-10-31T05:37:27;2.80;;;0.60;;
29162;SDS011;20331;53.144;8.208;2023-10-31T05:42:48;3.05;;;0.60;;
29162;SDS011;20331;53.144;8.208;2023-10-31T05:48:10;3.25;;;0.57;;
29162;SDS011;20331;53.144;8.208;2023-10-31T05:53:34;0.73;;;0.40;;
29162;SDS011;20331;53.144;8.208;2023-10-31T05:58:56;4.72;;;0.60;;
29162;SDS011;20331;53.144;8.208;2023-10-31T06:04:18;2.97;;;0.80;;
29162;SDS011;20331;53.144;8.208;2023-10-31T06:09:40;7.78;;;1.30;;
29162;SDS011;20331;53.144;8.208;2023-10-31T06:15:02;3.35;;;1.05;;
29162;SDS011;20331;53.144;8.208;2023-10-31T06:20:25;2.92;;;0.90;;
29162;SDS011;20331;53.144;8.208;2023-10-31T06:25:47;2.92;;;0.80;;
29162;SDS011;20331;53.144;8.208;2023-10-31T06:31:09;5.53;;;1.00;;
29162;SDS011;20331;53.144;8.208;2023-10-31T06:36:31;3.08;;;1.10;;
29162;SDS011;20331;53.144;8.208;2023-10-31T06:41:56;3.33;;;0.90;;
29162;SDS011;20331;53.144;8.208;2023-10-31T06:47:18;4.03;;;1.30;;
29162;SDS011;20331;53.144;8.208;2023-10-31T06:52:40;3.30;;;1.30;;
29162;SDS011;20331;53.144;8.208;2023-10-31T06:58:02;3.33;;;1.23;;
29162;SDS011;20331;53.144;8.208;2023-10-31T07:03:25;4.88;;;1.33;;
29162;SDS011;20331;53.144;8.208;2023-10-31T07:08:47;3.67;;;1.45;;
29162;SDS011;20331;53.144;8.208;2023-10-31T07:14:09;3.22;;;1.55;;
29162;SDS011;20331;53.144;8.208;2023-10-31T07:19:31;3.85;;;1.20;;
29162;SDS011;20331;53.144;8.208;2023-10-31T07:24:53;4.40;;;1.27;;
29162;SDS011;20331;53.144;8.208;2023-10-31T07:30:15;3.72;;;1.30;;
29162;SDS011;20331;53.144;8.208;2023-10-31T07:35:37;2.08;;;1.17;;
29162;SDS011;20331;53.144;8.208;2023-10-31T07:40:59;2.00;;;0.93;;
29162;SDS011;20331;53.144;8.208;2023-10-31T07:46:21;2.75;;;1.30;;
29162;SDS011;20331;53.144;8.208;2023-10-31T07:51:43;4.28;;;1.13;;
29162;SDS011;20331;53.144;8.208;2023-10-31T07:57:05;1.13;;;0.82;;
29162;SDS011;20331;53.144;8.208;2023-10-31T08:02:27;1.15;;;0.95;;
29162;SDS011;20331;53.144;8.208;2023-10-31T08:07:49;2.47;;;0.65;;
29162;SDS011;20331;53.144;8.208;2023-10-31T08:13:11;1.58;;;0.75;;
29162;SDS011;20331;53.144;8.208;2023-10-31T08:18:33;2.03;;;0.73;;
29162;SDS011;20331;53.144;8.208;2023-10-31T08:23:55;1.00;;;0.60;;
29162;SDS011;20331;53.144;8.208;2023-10-31T08:29:17;1.35;;;0.70;;
29162;SDS011;20331;53.144;8.208;2023-10-31T08:34:39;0.90;;;0.57;;
29162;SDS011;20331;53.144;8.208;2023-10-31T08:40:01;0.98;;;0.82;;
29162;SDS011;20331;53.144;8.208;2023-10-31T08:45:25;1.70;;;0.70;;
29162;SDS011;20331;53.144;8.208;2023-10-31T08:50:47;1.75;;;0.93;;
29162;SDS011;20331;53.144;8.208;2023-10-31T08:56:09;2.13;;;0.95;;
29162;SDS011;20331;53.144;8.208;2023-10-31T09:01:31;1.52;;;1.10;;
29162;SDS011;20331;53.144;8.208;2023-10-31T09:06:55;3.42;;;1.20;;
29162;SDS011;20331;53.144;8.208;2023-10-31T09:12:17;2.88;;;1.35;;
29162;SDS011;20331;53.144;8.208;2023-10-31T09:17:38;3.83;;;1.80;;
29162;SDS011;20331;53.144;8.208;2023-10-31T09:23:00;4.07;;;1.60;;
29162;SDS011;20331;53.144;8.208;2023-10-31T09:28:22;2.70;;;1.60;;
29162;SDS011;20331;53.144;8.208;2023-10-31T09:33:45;3.80;;;2.00;;
29162;SDS011;20331;53.144;8.208;2023-10-31T09:39:07;4.20;;;2.10;;
29162;SDS011;20331;53.144;8.208;2023-10-31T09:44:29;3.95;;;1.80;;
29162;SDS011;20331;53.144;8.208;2023-10-31T09:49:51;2.75;;;1.45;;
29162;SDS011;20331;53.144;8.208;2023-10-31T09:55:14;4.35;;;1.70;;
29162;SDS011;20331;53.144;8.208;2023-10-31T10:00:37;2.70;;;1.50;;
29162;SDS011;20331;53.144;8.208;2023-10-31T10:06:01;4.60;;;1.88;;
29162;SDS011;20331;53.144;8.208;2023-10-31T10:11:27;3.05;;;1.70;;
29162;SDS011;20331;53.144;8.208;2023-10-31T10:16:49;3.67;;;1.90;;
29162;SDS011;20331;53.144;8.208;2023-10-31T10:22:11;3.60;;;1.80;;
29162;SDS011;20331;53.144;8.208;2023-10-31T10:27:34;4.20;;;1.80;;
29162;SDS011;20331;53.144;8.208;2023-10-31T10:32:57;6.35;;;2.20;;
29162;SDS011;20331;53.144;8.208;2023-10-31T10:38:19;5.20;;;1.77;;
29162;SDS011;20331;53.144;8.208;2023-10-31T10:43:42;7.10;;;1.90;;
29162;SDS011;20331;53.144;8.208;2023-10-31T10:49:06;2.60;;;1.42;;
29162;SDS011;20331;53.144;8.208;2023-10-31T10:54:33;8.13;;;1.60;;
29162;SDS011;20331;53.144;8.208;2023-10-31T11:00:01;2.05;;;1.17;;
29162;SDS011;20331;53.144;8.208;2023-10-31T11:05:25;4.53;;;1.50;;
29162;SDS011;20331;53.144;8.208;2023-10-31T11:10:48;3.92;;;1.08;;
29162;SDS011;20331;53.144;8.208;2023-10-31T11:16:13;2.55;;;1.13;;
29162;SDS011;20331;53.144;8.208;2023-10-31T11:22:00;5.85;;;1.27;;
29162;SDS011;20331;53.144;8.208;2023-10-31T11:27:23;4.63;;;1.23;;
29162;SDS011;20331;53.144;8.208;2023-10-31T11:32:51;10.00;;;1.05;;
29162;SDS011;20331;53.144;8.208;2023-10-31T11:38:14;3.75;;;1.17;;
29162;SDS011;20331;53.144;8.208;2023-10-31T11:49:01;2.53;;;0.70;;
29162;SDS011;20331;53.144;8.208;2023-10-31T11:54:23;5.70;;;0.40;;
29162;SDS011;20331;53.144;8.208;2023-10-31T11:59:45;3.13;;;0.55;;
29162;SDS011;20331;53.144;8.208;2023-10-31T12:05:13;6.10;;;0.63;;
29162;SDS011;20331;53.144;8.208;2023-10-31T12:10:36;3.30;;;0.50;;
29162;SDS011;20331;53.144;8.208;2023-10-31T12:15:58;2.28;;;0.57;;
29162;SDS011;20331;53.144;8.208;2023-10-31T12:27:00;5.60;;;0.80;;
29162;SDS011;20331;53.144;8.208;2023-10-31T12:32:22;3.53;;;0.60;;
29162;SDS011;20331;53.144;8.208;2023-10-31T12:37:45;1.25;;;0.43;;
29162;SDS011;20331;53.144;8.208;2023-10-31T12:43:08;2.33;;;0.50;;
29162;SDS011;20331;53.144;8.208;2023-10-31T12:48:31;1.33;;;0.80;;
29162;SDS011;20331;53.144;8.208;2023-10-31T12:53:54;2.22;;;0.47;;
29162;SDS011;20331;53.144;8.208;2023-10-31T12:59:17;1.92;;;0.47;;
29162;SDS011;20331;53.144;8.208;2023-10-31T13:04:40;2.42;;;1.02;;
29162;SDS011;20331;53.144;8.208;2023-10-31T13:10:02;1.10;;;0.60;;
29162;SDS011;20331;53.144;8.208;2023-10-31T13:15:25;6.28;;;0.90;;
29162;SDS011;20331;53.144;8.208;2023-10-31T13:20:47;4.57;;;0.73;;
29162;SDS011;20331;53.144;8.208;2023-10-31T13:26:09;3.78;;;0.50;;
29162;SDS011;20331;53.144;8.208;2023-10-31T13:31:31;6.40;;;0.77;;
29162;SDS011;20331;53.144;8.208;2023-10-31T13:36:54;5.25;;;0.85;;
29162;SDS011;20331;53.144;8.208;2023-10-31T13:42:16;5.88;;;0.80;;
29162;SDS011;20331;53.144;8.208;2023-10-31T13:47:38;8.32;;;0.93;;
29162;SDS011;20331;53.144;8.208;2023-10-31T13:53:00;6.72;;;1.27;;
29162;SDS011;20331;53.144;8.208;2023-10-31T13:58:24;6.18;;;1.27;;
29162;SDS011;20331;53.144;8.208;2023-10-31T14:03:46;3.30;;;1.40;;
29162;SDS011;20331;53.144;8.208;2023-10-31T14:09:10;5.93;;;1.00;;
29162;SDS011;20331;53.144;8.208;2023-10-31T14:14:33;5.68;;;0.98;;
29162;SDS011;20331;53.144;8.208;2023-10-31T14:19:55;6.50;;;0.90;;
29162;SDS011;20331;53.144;8.208;2023-10-31T14:25:17;3.67;;;1.00;;
29162;SDS011;20331;53.144;8.208;2023-10-31T14:30:39;6.47;;;0.90;;
29162;SDS011;20331;53.144;8.208;2023-10-31T14:36:01;5.60;;;0.80;;
29162;SDS011;20331;53.144;8.208;2023-10-31T14:41:23;6.68;;;0.80;;
29162;SDS011;20331;53.144;8.208;2023-10-31T14:46:46;5.07;;;0.75;;
29162;SDS011;20331;53.144;8.208;2023-10-31T14:52:08;4.30;;;1.15;;
29162;SDS011;20331;53.144;8.208;2023-10-31T14:57:30;5.72;;;1.13;;
29162;SDS011;20331;53.144;8.208;2023-10-31T15:02:52;4.65;;;1.13;;
29162;SDS011;20331;53.144;8.208;2023-10-31T15:08:14;4.47;;;1.00;;
29162;SDS011;20331;53.144;8.208;2023-10-31T15:13:36;4.05;;;0.82;;
29162;SDS011;20331;53.144;8.208;2023-10-31T15:18:58;3.88;;;1.83;;
29162;SDS011;20331;53.144;8.208;2023-10-31T15:24:20;5.90;;;1.50;;
29162;SDS011;20331;53.144;8.208;2023-10-31T15:29:42;7.45;;;1.40;;
29162;SDS011;20331;53.144;8.208;2023-10-31T15:35:05;5.25;;;1.30;;
29162;SDS011;20331;53.144;8.208;2023-10-31T15:40:28;5.50;;;1.25;;
29162;SDS011;20331;53.144;8.208;2023-10-31T15:45:50;10.45;;;2.45;;
29162;SDS011;20331;53.144;8.208;2023-10-31T15:51:12;6.88;;;2.58;;
29162;SDS011;20331;53.144;8.208;2023-10-31T15:56:34;6.70;;;2.10;;
29162;SDS011;20331;53.144;8.208;2023-10-31T16:01:56;10.65;;;2.30;;
29162;SDS011;20331;53.144;8.208;2023-10-31T16:07:18;9.52;;;2.40;;
29162;SDS011;20331;53.144;8.208;2023-10-31T16:12:42;6.07;;;2.00;;
29162;SDS011;20331;53.144;8.208;2023-10-31T16:18:04;7.07;;;1.60;;
29162;SDS011;20331;53.144;8.208;2023-10-31T16:23:28;6.40;;;2.20;;
29162;SDS011;20331;53.144;8.208;2023-10-31T16:28:50;6.22;;;2.47;;
29162;SDS011;20331;53.144;8.208;2023-10-31T16:34:12;11.75;;;2.20;;
29162;SDS011;20331;53.144;8.208;2023-10-31T16:39:34;7.22;;;2.30;;
29162;SDS011;20331;53.144;8.208;2023-10-31T16:44:56;6.10;;;2.78;;
29162;SDS011;20331;53.144;8.208;2023-10-31T16:50:18;8.52;;;2.67;;
29162;SDS011;20331;53.144;8.208;2023-10-31T16:55:40;11.13;;;2.97;;
29162;SDS011;20331;53.144;8.208;2023-10-31T17:01:02;11.18;;;2.90;;
29162;SDS011;20331;53.144;8.208;2023-10-31T17:06:25;6.50;;;2.70;;
29162;SDS011;20331;53.144;8.208;2023-10-31T17:11:49;9.57;;;3.72;;
29162;SDS011;20331;53.144;8.208;2023-10-31T17:17:11;15.82;;;3.92;;
29162;SDS011;20331;53.144;8.208;2023-10-31T17:22:33;8.65;;;4.10;;
29162;SDS011;20331;53.144;8.208;2023-10-31T17:27:57;8.88;;;4.28;;
29162;SDS011;20331;53.144;8.208;2023-10-31T17:33:19;9.90;;;4.07;;
29162;SDS011;20331;53.144;8.208;2023-10-31T17:38:41;9.88;;;4.47;;
29162;SDS011;20331;53.144;8.208;2023-10-31T17:44:04;12.98;;;4.18;;
29162;SDS011;20331;53.144;8.208;2023-10-31T17:49:26;11.55;;;4.40;;
29162;SDS011;20331;53.144;8.208;2023-10-31T17:54:47;10.73;;;4.97;;
29162;SDS011;20331;53.144;8.208;2023-10-31T18:00:10;6.85;;;4.05;;
29162;SDS011;20331;53.144;8.208;2023-10-31T18:05:32;12.23;;;5.22;;
29162;SDS011;20331;53.144;8.208;2023-10-31T18:10:54;10.88;;;5.15;;
29162;SDS011;20331;53.144;8.208;2023-10-31T18:16:16;12.88;;;5.45;;
29162;SDS011;20331;53.144;8.208;2023-10-31T18:21:41;19.85;;;8.30;;
29162;SDS011;20331;53.144;8.208;2023-10-31T18:27:03;16.00;;;7.97;;
29162;SDS011;20331;53.144;8.208;2023-10-31T18:32:25;20.45;;;9.32;;
29162;SDS011;20331;53.144;8.208;2023-10-31T18:37:48;13.50;;;7.63;;
29162;SDS011;20331;53.144;8.208;2023-10-31T18:43:10;21.25;;;7.43;;
29162;SDS011;20331;53.144;8.208;2023-10-31T18:48:32;17.50;;;6.97;;
29162;SDS011;20331;53.144;8.208;2023-10-31T18:53:56;24.50;;;7.55;;
29162;SDS011;20331;53.144;8.208;2023-10-31T18:59:18;12.40;;;6.85;;
29162;SDS011;20331;53.144;8.208;2023-10-31T19:04:40;14.25;;;6.80;;
29162;SDS011;20331;53.144;8.208;2023-10-31T19:10:02;11.50;;;6.85;;
29162;SDS011;20331;53.144;8.208;2023-10-31T19:15:24;10.55;;;5.90;;
29162;SDS011;20331;53.144;8.208;2023-10-31T19:20:47;16.10;;;6.18;;
29162;SDS011;20331;53.144;8.208;2023-10-31T19:26:09;14.27;;;5.43;;
29162;SDS011;20331;53.144;8.208;2023-10-31T19:31:31;7.38;;;3.70;;
29162;SDS011;20331;53.144;8.208;2023-10-31T19:36:53;5.03;;;3.60;;
29162;SDS011;20331;53.144;8.208;2023-10-31T19:42:15;8.80;;;2.50;;
29162;SDS011;20331;53.144;8.208;2023-10-31T19:47:37;9.80;;;2.92;;
29162;SDS011;20331;53.144;8.208;2023-10-31T19:52:59;8.40;;;3.25;;
29162;SDS011;20331;53.144;8.208;2023-10-31T19:58:21;10.05;;;3.78;;
29162;SDS011;20331;53.144;8.208;2023-10-31T20:03:45;13.75;;;4.10;;
29162;SDS011;20331;53.144;8.208;2023-10-31T20:09:07;7.85;;;3.67;;
29162;SDS011;20331;53.144;8.208;2023-10-31T20:14:29;10.13;;;4.40;;
29162;SDS011;20331;53.144;8.208;2023-10-31T20:19:51;7.90;;;4.45;;
29162;SDS011;20331;53.144;8.208;2023-10-31T20:25:13;10.80;;;3.92;;
29162;SDS011;20331;53.144;8.208;2023-10-31T20:30:35;8.63;;;3.83;;
29162;SDS011;20331;53.144;8.208;2023-10-31T20:35:58;11.00;;;3.92;;
29162;SDS011;20331;53.144;8.208;2023-10-31T20:41:20;9.20;;;3.70;;
29162;SDS011;20331;53.144;8.208;2023-10-31T20:46:43;12.00;;;3.83;;
29162;SDS011;20331;53.144;8.208;2023-10-31T20:52:05;10.00;;;4.00;;
29162;SDS011;20331;53.144;8.208;2023-10-31T20:57:27;10.35;;;3.85;;
29162;SDS011;20331;53.144;8.208;2023-10-31T21:02:49;11.48;;;3.53;;
29162;SDS011;20331;53.144;8.208;2023-10-31T21:08:11;12.07;;;3.70;;
29162;SDS011;20331;53.144;8.208;2023-10-31T21:13:33;10.63;;;3.95;;
29162;SDS011;20331;53.144;8.208;2023-10-31T21:18:55;14.73;;;4.00;;
29162;SDS011;20331;53.144;8.208;2023-10-31T21:24:17;7.20;;;3.85;;
29162;SDS011;20331;53.144;8.208;2023-10-31T21:29:39;8.52;;;3.47;;
29162;SDS011;20331;53.144;8.208;2023-10-31T21:35:01;11.23;;;3.45;;
29162;SDS011;20331;53.144;8.208;2023-10-31T21:40:25;7.97;;;3.50;;
29162;SDS011;20331;53.144;8.208;2023-10-31T21:45:47;8.48;;;3.15;;
29162;SDS011;20331;53.144;8.208;2023-10-31T21:51:09;7.65;;;2.72;;
29162;SDS011;20331;53.144;8.208;2023-10-31T21:56:31;12.43;;;2.88;;
29162;SDS011;20331;53.144;8.208;2023-10-31T22:01:53;10.27;;;2.42;;
29162;SDS011;20331;53.144;8.208;2023-10-31T22:07:15;6.53;;;2.30;;
29162;SDS011;20331;53.144;8.208;2023-10-31T22:12:37;5.82;;;2.13;;
29162;SDS011;20331;53.144;8.208;2023-10-31T22:17:59;9.57;;;2.10;;
29162;SDS011;20331;53.144;8.208;2023-10-31T22:23:21;5.80;;;1.67;;
29162;SDS011;20331;53.144;8.208;2023-10-31T22:28:43;5.63;;;1.83;;
29162;SDS011;20331;53.144;8.208;2023-10-31T22:34:05;9.95;;;1.50;;
29162;SDS011;20331;53.144;8.208;2023-10-31T22:39:27;10.55;;;1.80;;
29162;SDS011;20331;53.144;8.208;2023-10-31T22:44:49;5.80;;;1.58;;
29162;SDS011;20331;53.144;8.208;2023-10-31T22:50:11;5.45;;;1.55;;
29162;SDS011;20331;53.144;8.208;2023-10-31T22:55:33;6.85;;;1.77;;
29162;SDS011;20331;53.144;8.208;2023-10-31T23:00:55;8.07;;;2.03;;
29162;SDS011;20331;53.144;8.208;2023-10-31T23:06:17;8.27;;;1.60;;
29162;SDS011;20331;53.144;8.208;2023-10-31T23:11:39;3.60;;;1.83;;
29162;SDS011;20331;53.144;8.208;2023-10-31T23:17:02;10.93;;;2.08;;
29162;SDS011;20331;53.144;8.208;2023-10-31T23:22:24;9.13;;;2.40;;
29162;SDS011;20331;53.144;8.208;2023-10-31T23:27:48;6.85;;;1.98;;
29162;SDS011;20331;53.144;8.208;2023-10-31T23:33:10;5.97;;;1.90;;
29162;SDS011;20331;53.144;8.208;2023-10-31T23:38:32;5.15;;;2.63;;
29162;SDS011;20331;53.144;8.208;2023-10-31T23:43:54;5.38;;;2.35;;
29162;SDS011;20331;53.144;8.208;2023-10-31T23:49:16;11.98;;;3.00;;
29162;SDS011;20331;53.144;8.208;2023-10-31T23:54:40;6.70;;;2.97;;
